Time;durP1;ratioP1;P1;durP2;ratioP2;P2;SDS_P1;SDS_P2;PMS_P1;PMS_P2;Temp;Humidity;BMP_temperature;BMP_pressure;BME280_temperature;BME280_humidity;BME280_pressure;Samples;Min_cycle;Max_cycle;Signal;HPM_P1;HPM_P2
2022/04/21 00:01:15;;;;;;;6.73;3.30;;;;;;;14.08;47.41;100161.53;5079726;28;20216;-66
2022/04/21 00:03:43;;;;;;;5.07;3.43;;;;;;;13.98;47.67;100161.78;5083222;28;20252;-66
2022/04/21 00:06:11;;;;;;;5.97;3.10;;;;;;;13.96;48.16;100149.63;5084246;28;20222;-66
2022/04/21 00:08:38;;;;;;;6.07;2.97;;;;;;;13.91;48.15;100150.97;5081921;28;20226;-65
2022/04/21 00:11:06;;;;;;;9.27;3.43;;;;;;;13.91;48.21;100150.97;5079642;28;20229;-65
2022/04/21 00:13:35;;;;;;;8.87;3.97;;;;;;;13.86;48.28;100144.53;5082355;28;20708;-66
2022/04/21 00:16:05;;;;;;;9.23;3.60;;;;;;;13.85;48.00;100135.72;5076375;28;20246;-66
2022/04/21 00:18:33;;;;;;;6.97;3.83;;;;;;;13.80;48.45;100139.91;5080069;28;20659;-66
2022/04/21 00:21:01;;;;;;;7.47;3.47;;;;;;;13.76;48.39;100144.75;5082577;28;20207;-66
2022/04/21 00:23:29;;;;;;;4.63;3.13;;;;;;;13.72;48.62;100138.09;5081118;28;20213;-66
2022/04/21 00:25:58;;;;;;;6.47;3.37;;;;;;;13.74;48.71;100141.44;5080260;28;20722;-66
2022/04/21 00:28:28;;;;;;;7.03;3.60;;;;;;;13.74;48.81;100137.94;5084726;28;20842;-66
2022/04/21 00:30:56;;;;;;;7.47;3.70;;;;;;;13.70;48.86;100137.47;5083117;28;20209;-66
2022/04/21 00:33:25;;;;;;;6.97;3.43;;;;;;;13.66;48.97;100125.50;5082883;28;20305;-66
2022/04/21 00:35:53;;;;;;;6.80;3.70;;;;;;;13.63;48.77;100133.88;5079708;28;20625;-66
2022/04/21 00:38:21;;;;;;;5.43;3.20;;;;;;;13.59;48.98;100129.88;5084315;28;20221;-66
2022/04/21 00:40:49;;;;;;;8.17;3.60;;;;;;;13.59;48.90;100132.53;5085524;28;20599;-66
2022/04/21 00:43:17;;;;;;;8.87;3.80;;;;;;;13.45;48.95;100127.97;5081293;28;20714;-65
2022/04/21 00:45:47;;;;;;;6.97;3.53;;;;;;;13.40;49.19;100125.00;5078691;28;20228;-65
2022/04/21 00:48:15;;;;;;;8.60;3.73;;;;;;;13.40;49.01;100132.97;5083964;28;20292;-66
2022/04/21 00:50:44;;;;;;;5.77;3.13;;;;;;;13.47;48.52;100126.78;5081970;28;20208;-66
2022/04/21 00:53:12;;;;;;;7.17;3.37;;;;;;;13.44;48.33;100121.00;5081556;28;20208;-66
2022/04/21 00:55:41;;;;;;;5.07;3.17;;;;;;;13.39;48.57;100124.16;5080438;28;20230;-66
2022/04/21 00:58:09;;;;;;;6.90;3.37;;;;;;;13.41;48.48;100119.50;5081074;28;20255;-66
2022/04/21 01:00:37;;;;;;;7.00;3.93;;;;;;;13.45;48.40;100120.00;5078865;28;20223;-66
2022/04/21 01:03:06;;;;;;;5.80;3.43;;;;;;;13.47;48.79;100123.28;5080419;28;20631;-66
2022/04/21 01:05:34;;;;;;;5.43;3.50;;;;;;;13.49;48.67;100124.78;5081296;28;20676;-66
2022/04/21 01:08:05;;;;;;;5.80;3.47;;;;;;;13.44;48.51;100124.47;5081060;28;20728;-66
2022/04/21 01:10:35;;;;;;;5.63;3.10;;;;;;;13.45;48.93;100134.13;5084310;28;20299;-66
2022/04/21 01:13:06;;;;;;;4.80;3.17;;;;;;;13.44;48.98;100126.31;5082334;28;20305;-66
2022/04/21 01:15:36;;;;;;;5.30;3.80;;;;;;;13.42;49.14;100128.31;5087546;28;20205;-66
2022/04/21 01:18:05;;;;;;;4.87;3.47;;;;;;;13.43;49.05;100119.31;5081103;28;20200;-66
2022/04/21 01:20:34;;;;;;;6.67;3.60;;;;;;;13.46;49.02;100118.94;5083964;28;20724;-66
2022/04/21 01:23:02;;;;;;;5.23;3.00;;;;;;;13.38;49.15;100113.69;5085283;28;20207;-66
2022/04/21 01:25:37;;;;;;;5.53;3.50;;;;;;;13.34;49.21;100113.22;5084387;28;20266;-66
2022/04/21 01:28:06;;;;;;;7.40;3.50;;;;;;;13.29;49.40;100109.41;5085409;28;20294;-66
2022/04/21 01:30:34;;;;;;;7.40;3.60;;;;;;;13.18;50.06;100106.13;5088926;28;20225;-66
2022/04/21 01:33:05;;;;;;;6.10;3.47;;;;;;;13.15;50.08;100105.66;5085904;28;20217;-66
2022/04/21 01:35:43;;;;;;;7.70;3.70;;;;;;;13.14;50.08;100104.81;5085891;28;20260;-65
2022/04/21 01:41:12;;;;;;;6.57;3.53;;;;;;;13.18;49.41;100106.13;5085645;28;20213;-66
2022/04/21 01:43:43;;;;;;;7.43;3.53;;;;;;;13.13;49.35;100105.81;5081245;28;20204;-66
2022/04/21 01:46:11;;;;;;;7.67;3.70;;;;;;;13.17;49.30;100103.66;5086331;28;20220;-65
2022/04/21 01:48:39;;;;;;;7.47;3.53;;;;;;;13.14;49.74;100102.16;5087778;28;20617;-66
2022/04/21 01:51:08;;;;;;;5.10;3.33;;;;;;;13.14;50.01;100103.97;5084568;28;20847;-66
2022/04/21 01:53:35;;;;;;;5.57;3.30;;;;;;;13.12;50.15;100100.63;5082745;28;20236;-66
2022/04/21 01:56:03;;;;;;;9.10;3.93;;;;;;;13.07;50.19;100103.81;5081574;28;20234;-66
2022/04/21 01:58:31;;;;;;;8.00;3.97;;;;;;;13.09;50.23;100101.81;5086740;28;20219;-66
2022/04/21 02:00:59;;;;;;;5.67;3.33;;;;;;;13.04;50.21;100104.16;5082252;28;20577;-64
2022/04/21 02:03:27;;;;;;;5.90;3.67;;;;;;;13.01;50.18;100099.19;5085182;28;20648;-66
2022/04/21 02:05:55;;;;;;;5.90;3.50;;;;;;;12.97;50.56;100103.19;5084082;28;21076;-66
2022/04/21 02:08:24;;;;;;;6.43;4.30;;;;;;;12.99;50.35;100106.53;5084326;28;20209;-66
2022/04/21 02:10:52;;;;;;;7.87;4.30;;;;;;;12.91;50.60;100108.38;5082120;28;20306;-66
2022/04/21 02:13:20;;;;;;;7.50;3.90;;;;;;;12.84;50.58;100108.22;5084842;28;20293;-66
2022/04/21 02:15:47;;;;;;;9.07;4.10;;;;;;;12.76;51.14;100105.59;5083752;28;20202;-67
2022/04/21 02:18:17;;;;;;;5.73;3.87;;;;;;;12.74;51.26;100103.13;5089102;28;20210;-66
2022/04/21 02:20:44;;;;;;;7.93;3.77;;;;;;;12.74;51.03;100107.59;5082106;28;20694;-65
2022/04/21 02:23:12;;;;;;;5.57;3.30;;;;;;;12.76;50.80;100103.75;5083927;28;20242;-65
2022/04/21 02:25:41;;;;;;;6.30;3.57;;;;;;;12.77;51.12;100105.41;5084344;28;20203;-65
2022/04/21 02:28:09;;;;;;;6.83;3.73;;;;;;;12.73;51.42;100105.94;5082522;28;22248;-65
2022/04/21 02:30:37;;;;;;;6.93;3.53;;;;;;;12.74;51.34;100097.78;5084765;28;20195;-65
2022/04/21 02:33:05;;;;;;;7.20;3.63;;;;;;;12.75;51.58;100101.28;5084602;28;20582;-65
2022/04/21 02:35:33;;;;;;;6.67;3.40;;;;;;;12.75;51.47;100098.63;5085829;28;20207;-65
2022/04/21 02:38:00;;;;;;;6.37;3.63;;;;;;;12.72;51.51;100097.13;5085574;28;20697;-65
2022/04/21 02:40:28;;;;;;;7.17;3.50;;;;;;;12.68;51.25;100089.66;5088275;28;20697;-65
2022/04/21 02:42:57;;;;;;;5.33;3.40;;;;;;;12.64;51.61;100085.69;5085198;28;20671;-65
2022/04/21 02:45:25;;;;;;;5.20;3.60;;;;;;;12.62;51.54;100082.34;5081642;28;20206;-65
2022/04/21 02:47:53;;;;;;;4.97;3.40;;;;;;;12.49;51.58;100085.53;5089182;28;20227;-65
2022/04/21 02:50:21;;;;;;;5.70;3.37;;;;;;;12.46;52.07;100079.75;5080448;28;20206;-65
2022/04/21 02:52:49;;;;;;;6.60;3.57;;;;;;;12.49;51.90;100076.75;5082612;28;20206;-65
2022/04/21 02:58:04;;;;;;;5.50;3.33;;;;;;;12.46;51.78;100093.03;5082678;28;20296;-66
2022/04/21 03:00:32;;;;;;;6.80;3.57;;;;;;;12.44;51.83;100091.38;5086823;28;20319;-65
2022/04/21 03:03:01;;;;;;;6.73;3.60;;;;;;;12.47;51.60;100078.75;5084089;28;20213;-65
2022/04/21 03:05:29;;;;;;;7.90;4.07;;;;;;;12.43;51.79;100079.06;5083031;28;20234;-65
2022/04/21 03:07:57;;;;;;;8.90;3.97;;;;;;;12.50;51.71;100075.72;5081226;28;20214;-65
2022/04/21 03:10:26;;;;;;;6.37;3.93;;;;;;;12.53;51.41;100073.56;5081395;28;20202;-65
2022/04/21 03:12:54;;;;;;;6.43;3.80;;;;;;;12.47;51.45;100071.59;5082255;28;20485;-65
2022/04/21 03:15:23;;;;;;;8.00;3.53;;;;;;;12.34;52.18;100076.59;5081725;28;20202;-67
2022/04/21 03:17:51;;;;;;;8.97;4.07;;;;;;;12.20;52.60;100066.66;5083661;28;20233;-66
2022/04/21 03:25:50;;;;;;;7.10;4.17;;;;;;;12.31;52.40;100066.31;5086425;28;20233;-66
2022/04/21 03:28:18;;;;;;;5.63;3.70;;;;;;;12.34;52.16;100068.63;5083892;28;20239;-65
2022/04/21 03:30:47;;;;;;;6.90;4.00;;;;;;;12.33;52.30;100062.47;5079512;28;20285;-65
2022/04/21 03:33:15;;;;;;;8.23;5.07;;;;;;;12.31;52.40;100064.47;5078960;28;20218;-66
2022/04/21 03:35:43;;;;;;;11.13;4.30;;;;;;;12.33;52.28;100072.28;5083068;28;20198;-66
2022/04/21 03:38:10;;;;;;;9.57;3.80;;;;;;;12.37;52.29;100079.75;5082269;28;20727;-66
2022/04/21 03:40:38;;;;;;;5.87;3.73;;;;;;;12.35;52.30;100084.41;5086016;28;20585;-66
2022/04/21 03:43:07;;;;;;;6.23;3.73;;;;;;;12.33;52.35;100078.44;5083012;28;20215;-66
2022/04/21 03:45:35;;;;;;;8.67;4.00;;;;;;;12.32;52.36;100086.56;5082774;28;20246;-66
2022/04/21 03:48:05;;;;;;;7.63;4.10;;;;;;;12.31;52.26;100079.63;5086629;28;20675;-66
2022/04/21 03:50:34;;;;;;;7.70;3.80;;;;;;;12.26;52.34;100088.06;5083052;28;20214;-66
2022/04/21 03:53:01;;;;;;;8.80;3.80;;;;;;;12.24;52.26;100084.75;5083268;28;20522;-66
2022/04/21 03:55:29;;;;;;;6.87;3.90;;;;;;;12.24;52.47;100092.72;5082452;28;20329;-66
2022/04/21 03:57:57;;;;;;;8.17;4.27;;;;;;;12.24;52.34;100090.06;5081069;28;20242;-66
2022/04/21 04:00:25;;;;;;;7.93;3.60;;;;;;;12.18;52.40;100093.41;5082860;28;20222;-66
2022/04/21 04:02:54;;;;;;;6.37;3.87;;;;;;;12.17;52.66;100083.75;5081986;28;20211;-66
2022/04/21 04:05:23;;;;;;;8.07;4.50;;;;;;;12.18;52.55;100082.78;5082256;28;20876;-66
2022/04/21 04:10:54;;;;;;;9.10;4.67;;;;;;;12.10;52.74;100088.09;5078656;28;20615;-67
2022/04/21 04:13:22;;;;;;;6.47;3.77;;;;;;;12.12;52.75;100078.13;5082154;28;20206;-66
2022/04/21 04:15:50;;;;;;;9.77;3.90;;;;;;;12.13;52.68;100079.81;5081228;28;20710;-66
2022/04/21 04:18:18;;;;;;;9.87;4.80;;;;;;;12.12;52.96;100080.78;5083983;28;20306;-66
2022/04/21 04:20:47;;;;;;;8.90;4.23;;;;;;;12.14;52.65;100068.16;5081760;28;20206;-66
2022/04/21 04:23:16;;;;;;;10.60;4.33;;;;;;;12.16;52.53;100074.13;5081407;28;20207;-66
2022/04/21 04:25:44;;;;;;;7.70;4.00;;;;;;;12.12;52.76;100070.16;5081880;28;20684;-66
2022/04/21 04:28:11;;;;;;;10.10;4.30;;;;;;;12.05;53.06;100075.28;5085399;28;20203;-66
2022/04/21 04:30:40;;;;;;;10.97;4.23;;;;;;;11.96;53.67;100073.63;5085323;28;20204;-66
2022/04/21 04:33:08;;;;;;;7.23;4.10;;;;;;;12.01;53.38;100079.31;5084278;28;20211;-66
2022/04/21 04:35:36;;;;;;;7.90;4.23;;;;;;;12.03;53.27;100081.78;5088051;28;20655;-66
2022/04/21 04:38:05;;;;;;;8.17;4.47;;;;;;;12.05;53.34;100074.47;5085987;28;20208;-66
2022/04/21 04:40:33;;;;;;;10.20;4.13;;;;;;;11.97;53.36;100066.50;5086077;28;20657;-66
2022/04/21 04:43:01;;;;;;;11.33;4.43;;;;;;;11.95;53.75;100073.81;5086106;28;20252;-66
2022/04/21 04:48:14;;;;;;;8.70;5.10;;;;;;;12.01;53.43;100070.50;5089267;28;20228;-66
2022/04/21 04:50:42;;;;;;;8.03;4.40;;;;;;;12.01;53.30;100070.50;5084349;28;20214;-66
2022/04/21 04:53:11;;;;;;;6.93;4.33;;;;;;;12.04;53.35;100078.16;5085201;28;20243;-66
2022/04/21 04:55:39;;;;;;;15.30;5.00;;;;;;;12.06;53.01;100073.47;5084481;28;20244;-66
2022/04/21 04:58:06;;;;;;;11.10;4.20;;;;;;;12.03;53.27;100079.13;5087037;28;20293;-66
2022/04/21 05:00:34;;;;;;;7.47;4.20;;;;;;;11.99;53.37;100080.44;5088052;28;20289;-66
2022/04/21 05:03:02;;;;;;;10.00;4.70;;;;;;;11.96;53.75;100075.50;5088568;28;21464;-66
2022/04/21 05:05:30;;;;;;;7.50;3.70;;;;;;;11.97;53.58;100077.13;5088913;28;20625;-66
2022/04/21 05:07:58;;;;;;;12.90;4.60;;;;;;;11.96;53.48;100067.53;5088309;28;20226;-66
2022/04/21 05:10:28;;;;;;;7.47;4.53;;;;;;;11.97;53.44;100067.34;5088488;28;20205;-64
2022/04/21 05:12:57;;;;;;;9.97;4.37;;;;;;;11.94;53.52;100072.16;5089045;28;20726;-65
2022/04/21 05:15:25;;;;;;;7.83;4.30;;;;;;;11.97;53.85;100072.66;5086944;28;20244;-65
2022/04/21 05:17:53;;;;;;;6.70;4.43;;;;;;;11.97;53.75;100064.66;5088046;28;20223;-65
2022/04/21 05:20:26;;;;;;;10.67;4.70;;;;;;;12.06;53.45;100065.50;5087905;28;20201;-65
2022/04/21 05:23:04;;;;;;;14.80;4.87;;;;;;;12.12;53.40;100066.69;5087391;28;20361;-65
2022/04/21 05:25:36;;;;;;;9.00;4.93;;;;;;;12.14;53.35;100068.16;5086793;28;20317;-66
2022/04/21 05:28:05;;;;;;;10.07;4.33;;;;;;;12.19;53.15;100071.16;5086683;28;20312;-65
2022/04/21 05:33:23;;;;;;;12.73;5.20;;;;;;;12.15;53.85;100069.81;5087094;28;20230;-66
2022/04/21 05:35:51;;;;;;;9.83;5.40;;;;;;;12.25;53.12;100070.47;5085494;28;20220;-65
2022/04/21 05:38:21;;;;;;;13.93;5.03;;;;;;;12.26;53.45;100069.47;5089010;28;20217;-66
2022/04/21 05:40:52;;;;;;;10.40;5.03;;;;;;;12.28;53.38;100074.63;5088803;28;20580;-66
2022/04/21 05:43:21;;;;;;;13.30;5.45;;;;;;;12.55;53.49;100068.91;5083634;28;20536;-67
2022/04/21 05:45:50;;;;;;;10.97;5.40;;;;;;;12.44;53.31;100075.41;5090401;28;20240;-66
2022/04/21 05:48:18;;;;;;;9.50;4.87;;;;;;;12.41;53.16;100065.13;5091537;28;20256;-66
2022/04/21 05:50:48;;;;;;;8.53;5.07;;;;;;;12.36;53.60;100072.78;5083157;28;20242;-66
2022/04/21 05:53:21;;;;;;;8.50;5.03;;;;;;;12.39;53.73;100071.63;5086784;28;20209;-66
2022/04/21 05:55:53;;;;;;;13.40;5.67;;;;;;;12.40;53.70;100074.09;5086696;28;20238;-66
2022/04/21 05:58:22;;;;;;;9.67;4.80;;;;;;;12.43;53.91;100079.06;5089752;28;20206;-66
2022/04/21 06:00:50;;;;;;;11.70;5.10;;;;;;;12.50;53.66;100073.91;5090056;28;20228;-66
2022/04/21 06:03:23;;;;;;;8.63;5.20;;;;;;;12.50;53.54;100073.91;5084101;28;20223;-67
2022/04/21 06:05:51;;;;;;;8.37;5.40;;;;;;;12.53;53.68;100068.25;5087368;28;20233;-67
2022/04/21 06:08:19;;;;;;;10.23;5.20;;;;;;;12.59;53.31;100072.03;5086431;28;20203;-66
2022/04/21 06:10:47;;;;;;;8.13;5.17;;;;;;;12.64;53.40;100072.38;5083434;28;20298;-66
2022/04/21 06:13:16;;;;;;;13.13;4.90;;;;;;;12.71;53.38;100071.53;5087923;28;20287;-66
2022/04/21 06:15:44;;;;;;;10.03;4.90;;;;;;;12.74;53.47;100075.69;5088594;28;20283;-67
2022/04/21 06:18:12;;;;;;;12.77;5.67;;;;;;;12.81;53.13;100071.31;5087996;28;20842;-66
2022/04/21 06:20:40;;;;;;;7.57;5.17;;;;;;;12.82;52.98;100067.66;5085879;28;20221;-67
2022/04/21 06:23:08;;;;;;;8.57;4.60;;;;;;;12.88;52.88;100072.28;5086753;28;20722;-67
2022/04/21 06:25:41;;;;;;;8.07;4.87;;;;;;;12.92;52.95;100070.97;5086225;28;20242;-67
2022/04/21 06:28:09;;;;;;;6.83;4.67;;;;;;;12.93;53.26;100075.25;5088381;28;20680;-67
2022/04/21 06:30:38;;;;;;;12.03;5.03;;;;;;;12.94;53.21;100068.94;5086886;28;20199;-68
2022/04/21 06:33:07;;;;;;;16.47;5.47;;;;;;;12.98;53.35;100069.44;5083917;28;20644;-67
2022/04/21 06:35:34;;;;;;;11.57;5.37;;;;;;;12.96;54.11;100074.91;5081482;28;20293;-64
2022/04/21 06:38:02;;;;;;;10.63;5.87;;;;;;;12.99;54.37;100069.25;5084289;28;20198;-64
2022/04/21 06:40:30;;;;;;;9.40;5.77;;;;;;;13.02;54.36;100060.91;5085955;28;20203;-61
2022/04/21 06:43:02;;;;;;;11.67;5.70;;;;;;;13.07;54.40;100068.38;5086949;28;20626;-64
2022/04/21 06:48:36;;;;;;;10.23;5.40;;;;;;;13.17;54.00;100064.53;5018787;28;20293;-63
2022/04/21 06:51:05;;;;;;;11.87;5.70;;;;;;;13.23;53.46;100064.84;5073195;28;20297;-67
2022/04/21 06:53:34;;;;;;;9.17;5.77;;;;;;;13.29;52.99;100061.47;5077995;28;20358;-67
2022/04/21 06:56:03;;;;;;;12.43;5.83;;;;;;;13.35;52.47;100053.63;5079285;28;20231;-67
2022/04/21 06:58:31;;;;;;;9.27;6.00;;;;;;;13.42;52.43;100064.41;5080183;28;20709;-67
2022/04/21 07:01:01;;;;;;;9.53;6.00;;;;;;;13.47;52.24;100062.03;5081988;28;20210;-67
2022/04/21 07:03:28;;;;;;;10.37;6.00;;;;;;;13.50;51.95;100062.50;5083364;28;20601;-67
2022/04/21 07:05:56;;;;;;;11.23;5.97;;;;;;;13.50;52.58;100062.50;5086291;28;20208;-67
2022/04/21 07:08:24;;;;;;;18.27;6.30;;;;;;;13.56;52.00;100060.97;5087804;28;20238;-67
2022/04/21 07:10:52;;;;;;;8.73;5.50;;;;;;;13.59;52.35;100059.78;5084820;28;20537;-67
2022/04/21 07:13:20;;;;;;;9.23;6.07;;;;;;;13.61;52.46;100063.94;5086487;28;20307;-67
2022/04/21 07:15:47;;;;;;;15.93;6.30;;;;;;;13.68;51.88;100059.56;5086875;28;20918;-67
2022/04/21 07:18:18;;;;;;;12.33;6.33;;;;;;;13.68;51.98;100059.56;5085934;28;20215;-67
2022/04/21 07:20:46;;;;;;;13.63;6.97;;;;;;;13.73;51.93;100059.84;5082846;28;20204;-67
2022/04/21 07:23:14;;;;;;;11.67;6.70;;;;;;;13.80;52.01;100060.81;5086522;28;20763;-67
2022/04/21 07:25:42;;;;;;;13.63;6.77;;;;;;;13.78;51.83;100054.00;5087085;28;20666;-67
2022/04/21 07:28:10;;;;;;;15.30;7.00;;;;;;;13.82;51.59;100049.94;5086903;28;20212;-66
2022/04/21 07:30:39;;;;;;;22.97;7.17;;;;;;;13.90;51.88;100047.22;5085509;28;20211;-67
2022/04/21 07:33:07;;;;;;;10.43;6.60;;;;;;;13.99;51.76;100050.63;5088273;28;20261;-66
2022/04/21 07:35:37;;;;;;;9.77;6.70;;;;;;;14.11;51.11;100050.03;5084138;28;20220;-66
2022/04/21 07:38:05;;;;;;;18.70;7.00;;;;;;;14.19;51.41;100044.63;5089967;28;20726;-66
2022/04/21 07:40:34;;;;;;;10.60;6.83;;;;;;;14.34;50.41;100047.28;5087602;28;20301;-66
2022/04/21 07:43:08;;;;;;;11.40;7.27;;;;;;;14.40;50.53;100043.94;5084087;28;20315;-67
2022/04/21 07:45:38;;;;;;;11.97;6.70;;;;;;;14.39;50.40;100047.63;5086710;28;20757;-67
2022/04/21 07:48:06;;;;;;;10.87;6.77;;;;;;;14.19;51.23;100041.94;5088485;28;20264;-68
2022/04/21 07:50:34;;;;;;;10.63;6.57;;;;;;;14.24;51.20;100049.41;5087693;28;20209;-67
2022/04/21 07:53:21;;;;;;;10.70;6.53;;;;;;;14.20;51.06;100046.28;5088762;28;20202;-67
2022/04/21 07:55:52;;;;;;;13.97;7.00;;;;;;;14.28;51.02;100045.34;5087338;28;20236;-67
2022/04/21 07:58:26;;;;;;;10.53;6.23;;;;;;;14.31;50.84;100034.34;5087579;28;20220;-67
2022/04/21 08:00:54;;;;;;;9.40;6.07;;;;;;;14.34;50.41;100033.94;5088349;28;20293;-67
2022/04/21 08:03:22;;;;;;;8.67;5.57;;;;;;;14.40;50.71;100033.28;5086181;28;20221;-67
2022/04/21 08:05:50;;;;;;;11.83;6.23;;;;;;;14.44;50.63;100031.88;5088566;28;20742;-68
2022/04/21 08:08:18;;;;;;;8.13;6.17;;;;;;;14.51;49.88;100030.13;5088364;28;20394;-66
2022/04/21 08:10:47;;;;;;;8.90;5.83;;;;;;;14.56;49.52;100033.09;5084533;28;20242;-67
2022/04/21 08:13:19;;;;;;;10.53;5.83;;;;;;;14.59;49.85;100034.56;5086935;28;20293;-67
2022/04/21 08:15:48;;;;;;;8.77;5.70;;;;;;;14.54;49.72;100034.28;5089015;28;20205;-68
2022/04/21 08:18:16;;;;;;;13.00;6.13;;;;;;;14.51;49.58;100029.34;5087763;28;20207;-68
2022/04/21 08:20:46;;;;;;;10.53;5.80;;;;;;;14.53;49.36;100038.78;5083954;28;20260;-67
2022/04/21 08:23:14;;;;;;;13.00;6.33;;;;;;;14.55;49.87;100041.28;5087332;28;20589;-68
2022/04/21 08:34:24;;;;;;;11.77;5.97;;;;;;;14.56;48.69;100041.09;5086865;28;20243;-67
2022/04/21 08:36:54;;;;;;;7.13;4.97;;;;;;;14.69;48.47;100049.25;5089012;28;20203;-69
2022/04/21 08:39:22;;;;;;;12.70;5.80;;;;;;;14.77;48.22;100044.88;5089237;28;20199;-67
2022/04/21 08:41:53;;;;;;;7.90;5.70;;;;;;;14.78;48.57;100049.16;5085766;28;20296;-68
2022/04/21 08:44:22;;;;;;;11.07;5.60;;;;;;;14.82;48.14;100037.13;5089336;28;20229;-67
2022/04/21 08:46:50;;;;;;;9.13;5.50;;;;;;;14.93;48.04;100044.66;5087339;28;20210;-68
2022/04/21 08:49:19;;;;;;;10.13;5.03;;;;;;;15.03;48.15;100039.84;5087263;28;20211;-71
2022/04/21 08:51:48;;;;;;;11.50;6.23;;;;;;;15.22;47.64;100043.75;5088253;28;20214;-70
2022/04/21 08:54:16;;;;;;;11.70;5.70;;;;;;;15.50;47.43;100041.19;5089315;28;20238;-69
2022/04/21 08:56:43;;;;;;;7.03;5.47;;;;;;;15.78;46.75;100040.25;5087673;28;20241;-69
2022/04/21 08:59:11;;;;;;;8.20;5.73;;;;;;;15.99;46.56;100038.59;5087426;28;20242;-69
2022/04/21 09:01:40;;;;;;;11.20;6.13;;;;;;;16.13;45.69;100033.16;5086340;28;20225;-69
2022/04/21 09:04:08;;;;;;;11.10;5.67;;;;;;;16.26;45.41;100032.44;5084954;28;20241;-70
2022/04/21 09:06:37;;;;;;;10.57;5.40;;;;;;;16.26;45.58;100031.59;5087484;28;20287;-69
2022/04/21 09:09:17;;;;;;;11.17;5.60;;;;;;;16.20;45.47;100035.88;5088017;28;20211;-70
2022/04/21 09:11:46;;;;;;;12.70;5.17;;;;;;;16.20;45.56;100030.50;5085331;28;20659;-69
2022/04/21 09:14:16;;;;;;;9.03;5.50;;;;;;;16.23;45.15;100031.97;5088602;28;20210;-69
2022/04/21 09:16:46;;;;;;;11.80;5.87;;;;;;;16.26;45.31;100023.56;5089293;28;20198;-66
2022/04/21 09:19:14;;;;;;;9.30;5.60;;;;;;;16.31;45.45;100024.63;5083013;28;20216;-67
2022/04/21 09:21:42;;;;;;;8.73;5.17;;;;;;;16.33;45.12;100032.47;5089783;28;20318;-67
2022/04/21 09:24:21;;;;;;;6.93;4.43;;;;;;;16.52;44.72;100031.75;5088249;28;20723;-67
2022/04/21 09:26:49;;;;;;;10.50;4.97;;;;;;;16.43;44.43;100022.25;5077828;28;20203;-69
2022/04/21 09:29:24;;;;;;;7.87;5.30;;;;;;;16.50;44.50;100029.28;5084320;28;20573;-69
2022/04/21 09:31:59;;;;;;;8.27;5.20;;;;;;;16.61;44.15;100024.41;5082329;28;20210;-70
2022/04/21 09:34:35;;;;;;;8.07;4.93;;;;;;;16.70;44.23;100017.91;5086911;28;20205;-68
2022/04/21 09:37:05;;;;;;;9.20;5.30;;;;;;;16.88;44.17;100016.34;5090042;28;20622;-69
2022/04/21 09:39:38;;;;;;;10.23;5.10;;;;;;;17.29;43.14;100018.09;5087056;28;20708;-67
2022/04/21 09:42:06;;;;;;;9.80;5.03;;;;;;;17.59;42.67;100013.22;5086586;28;20271;-67
2022/04/21 09:47:29;;;;;;;8.97;5.40;;;;;;;17.92;42.25;100013.25;5090197;28;20670;-67
2022/04/21 09:49:58;;;;;;;9.03;5.50;;;;;;;18.09;41.93;100008.28;5091804;28;20644;-67
2022/04/21 09:52:27;;;;;;;7.77;4.97;;;;;;;18.26;40.98;99999.59;5089030;28;20214;-67
2022/04/21 09:54:55;;;;;;;12.27;4.50;;;;;;;18.37;41.02;99990.91;5086723;28;20325;-67
2022/04/21 09:57:30;;;;;;;8.77;4.93;;;;;;;18.59;39.91;99988.81;5091476;28;20298;-67
2022/04/21 09:59:59;;;;;;;6.60;4.60;;;;;;;18.69;40.12;99993.75;5085733;28;20628;-68
2022/04/21 10:02:29;;;;;;;6.93;4.80;;;;;;;18.84;39.43;99988.09;5082705;28;20690;-67
2022/04/21 10:04:58;;;;;;;7.30;4.37;;;;;;;18.90;39.29;99985.41;5090297;28;20223;-68
2022/04/21 10:07:27;;;;;;;7.37;4.53;;;;;;;19.10;38.96;99991.47;5084032;28;20207;-67
2022/04/21 10:09:55;;;;;;;9.23;4.77;;;;;;;19.30;39.19;99974.41;5089065;28;20602;-66
2022/04/21 10:12:23;;;;;;;11.63;5.30;;;;;;;19.38;38.96;99974.16;5086052;28;20200;-67
2022/04/21 10:14:51;;;;;;;7.87;4.30;;;;;;;19.37;38.60;99972.50;5088306;28;20667;-67
2022/04/21 10:17:19;;;;;;;7.50;4.13;;;;;;;19.34;37.95;99978.34;5086864;28;20207;-67
2022/04/21 10:19:51;;;;;;;7.17;3.70;;;;;;;19.32;38.21;99972.34;5089027;28;20215;-67
2022/04/21 10:22:27;;;;;;;7.63;3.77;;;;;;;19.34;37.23;99970.25;5087644;28;20195;-67
2022/04/21 10:24:56;;;;;;;6.03;3.50;;;;;;;19.25;38.17;99972.38;5086653;28;20286;-68
2022/04/21 10:27:42;;;;;;;8.60;3.17;;;;;;;19.21;37.86;99970.34;5091569;28;20194;-66
2022/04/21 10:30:15;;;;;;;7.23;3.27;;;;;;;19.47;37.34;99967.47;5090230;28;20210;-66
2022/04/21 10:32:51;;;;;;;5.37;3.67;;;;;;;19.70;36.85;99950.78;5084561;28;20655;-66
2022/04/21 10:35:48;;;;;;;8.50;3.87;;;;;;;19.82;37.09;99951.69;5086514;28;20209;-67
2022/04/21 10:38:25;;;;;;;5.00;3.63;;;;;;;19.89;36.82;99947.09;5084523;28;20332;-66
2022/04/21 10:41:06;;;;;;;5.90;3.77;;;;;;;19.88;36.33;99951.63;5085395;28;20528;-67
2022/04/21 10:44:02;;;;;;;8.03;3.60;;;;;;;19.85;36.62;99940.50;5079901;28;20209;-67
2022/04/21 10:46:30;;;;;;;12.80;4.10;;;;;;;19.87;36.45;99927.66;5085021;28;20271;-69
2022/04/21 10:48:59;;;;;;;6.30;4.03;;;;;;;19.96;36.52;99925.50;5089469;28;20210;-69
2022/04/21 10:58:51;;;;;;;7.33;4.10;;;;;;;22.20;33.09;99906.94;5082448;28;20683;-68
2022/04/21 11:01:31;;;;;;;6.53;3.40;;;;;;;24.12;30.07;99896.03;5086073;28;20238;-67
2022/04/21 11:04:17;;;;;;;7.83;2.90;;;;;;;25.83;27.70;99892.69;5087127;28;20225;-67
2022/04/21 11:07:05;;;;;;;7.87;3.40;;;;;;;27.27;25.49;99891.03;5087277;28;20202;-67
2022/04/21 11:09:43;;;;;;;5.07;3.10;;;;;;;28.21;24.86;99878.72;5081787;28;21080;-67
2022/04/21 11:12:49;;;;;;;5.13;3.47;;;;;;;28.40;23.77;99877.81;5083620;28;20206;-67
2022/04/21 11:15:38;;;;;;;6.47;3.10;;;;;;;31.16;21.49;99877.59;5083431;28;20216;-67
2022/04/21 11:18:10;;;;;;;4.28;2.33;;;;;;;33.11;19.99;99872.38;5084721;28;20252;-68
2022/04/21 11:20:39;;;;;;;6.93;3.45;;;;;;;34.17;18.94;99864.09;5087396;28;20207;-67
2022/04/21 11:23:09;;;;;;;6.40;3.20;;;;;;;34.51;18.41;99860.66;5088893;28;20306;-67
2022/04/21 11:25:41;;;;;;;5.93;3.10;;;;;;;35.24;17.86;99856.19;5086847;28;20238;-69
2022/04/21 11:28:12;;;;;;;6.53;3.75;;;;;;;36.29;16.65;99847.22;5086619;28;20597;-68
2022/04/21 11:30:39;;;;;;;5.85;3.50;;;;;;;34.93;17.66;99850.00;5079449;28;20190;-69
2022/04/21 11:33:11;;;;;;;7.07;3.50;;;;;;;33.47;19.03;99853.09;5086234;28;20215;-68
2022/04/21 11:35:39;;;;;;;9.02;3.40;;;;;;;30.82;20.98;99851.25;5086521;28;20199;-68
2022/04/21 11:38:07;;;;;;;6.85;3.25;;;;;;;30.11;21.67;99843.16;5084452;28;20217;-68
2022/04/21 11:40:36;;;;;;;4.55;3.00;;;;;;;29.39;22.37;99840.34;5085774;28;20210;-69
2022/04/21 11:43:13;;;;;;;7.10;3.33;;;;;;;28.12;23.95;99837.56;5087659;28;20199;-70
2022/04/21 11:45:44;;;;;;;7.10;3.50;;;;;;;26.76;25.49;99835.72;5084712;28;21742;-69
2022/04/21 11:48:13;;;;;;;4.35;2.88;;;;;;;25.74;26.36;99850.81;5085682;28;20271;-69
2022/04/21 11:50:44;;;;;;;22.15;4.03;;;;;;;24.55;28.13;99846.47;5081085;28;20233;-69
2022/04/21 11:53:15;;;;;;;8.40;2.88;;;;;;;23.65;29.40;99838.81;5088783;28;20210;-70
2022/04/21 11:55:43;;;;;;;4.53;2.97;;;;;;;22.97;30.42;99841.72;5088625;28;20239;-69
2022/04/21 11:58:13;;;;;;;5.65;3.20;;;;;;;22.28;31.19;99832.84;5089789;28;20310;-69
2022/04/21 12:06:31;;;;;;;4.68;2.83;;;;;;;21.70;33.34;99825.66;5087583;28;20798;-67
2022/04/21 12:09:01;;;;;;;7.57;3.10;;;;;;;22.70;31.60;99819.84;5090756;28;20625;-67
2022/04/21 12:11:29;;;;;;;5.27;2.93;;;;;;;22.78;31.50;99820.31;5087091;28;20242;-69
2022/04/21 12:13:58;;;;;;;7.18;3.55;;;;;;;22.51;32.28;99811.16;5084094;28;20668;-68
2022/04/21 12:16:42;;;;;;;4.30;2.60;;;;;;;22.41;32.63;99811.78;5084853;28;20213;-68
2022/04/21 12:19:26;;;;;;;7.47;2.75;;;;;;;22.97;31.45;99812.81;5085379;28;20419;-68
2022/04/21 12:21:57;;;;;;;4.47;2.42;;;;;;;22.48;31.82;99807.06;5087424;28;20297;-68
2022/04/21 12:24:32;;;;;;;5.20;2.97;;;;;;;22.44;32.37;99808.59;5085423;28;20213;-68